Terminal Aerodrome Forecast
Issued by NWS Brownsville, TX

Home | Current Version | Previous Version | Text Only | Print | Product List | Glossary On
Versions: 1 2 3 4 5 6 7 8 9 10 11 12 13 14 15
000
FTUS44 KBRO 301731
TAFMFE
TAF
KMFE 301731Z 3018/3118 16016G24KT P6SM SCT025 SCT040
      TEMPO 3018/3021 BKN025
     FM310200 14013KT P6SM FEW015 SCT250
     FM310600 14010KT P6SM BKN015=

USA.gov is the U.S. government's official web portal to all federal, state and local government web resources and services.